Alkor — DBIG — position and weather

sailwx.info

Track history (hours):
 
Tides and Currents Weather Stations Pressure Air Temp Water Temp Dewpoint Dewpoint Depression Visibility Wind Speed Wind Dir Waves Ship Positions

Oceanographic research ship Alkor (Germany)

Detailed information on ship capabilities available from University of Delaware's Ocean Information Center.

Last reported at 2017-Jan-24 16:24 UTC. Time now 2017-Jan-24 19:19 UTC.
Position N 54°28' E 011°20'.

Length 49 m; draft 2.4 m.

Type: Law enforcement. MMSI: 211236510.

Date/timePositionNaut miles runAvg speedWind from/ knotsBaromVisibWave heightAir tempDewpointWater temp
2017-Jan-24 16:24N 54°28' E 011°20'5 6.1
2017-Jan-24 15:33N 54°32' E 011°14'4 4.4
2017-Jan-24 14:33N 54°33' E 011°07'1 0.1
2017-Jan-24 10:10N 54°34' E 011°07'4 7.2
2017-Jan-24 09:34N 54°34' E 011°15'  
2017-Jan-21 11:08N 54°27' E 010°24'  
2017-Jan-18 17:19N 54°28' E 011°19'4 5.6
2017-Jan-18 16:33N 54°32' E 011°15'6 5.6
2017-Jan-18 15:33N 54°33' E 011°06'6 6.0
2017-Jan-18 14:34N 54°34' E 010°55'7 6.7
2017-Jan-18 13:33N 54°35' E 010°44'  
2017-Jan-15 16:33N 54°32' E 011°15'6 5.7
2017-Jan-15 15:33N 54°33' E 011°05'5 5.3
2017-Jan-15 14:34N 54°32' E 010°57'6 5.6
2017-Jan-15 13:33N 54°29' E 010°48'7 5.1
2017-Jan-15 12:12N 54°32' E 010°59'4 6.4
2017-Jan-15 11:34N 54°34' E 011°05'6 6.2
2017-Jan-15 10:33N 54°31' E 011°15'  
Track history (hours):
 
Tides and Currents Weather Stations Pressure Air Temp Water Temp Dewpoint Dewpoint Depression Visibility Wind Speed Wind Dir Waves Ship Positions

Oceanographic research ship Alkor (Germany)

Detailed information on ship capabilities available from University of Delaware's Ocean Information Center.

Last reported at 2017-Jan-24 16:24 UTC. Time now 2017-Jan-24 19:19 UTC.
Position N 54°28' E 011°20'.

Length 49 m; draft 2.4 m.

Type: Law enforcement. MMSI: 211236510.

Date/timePositionNaut miles runAvg speedWind from/ knotsBaromVisibWave heightAir tempDewpointWater temp
2017-Jan-24 16:24N 54°28' E 011°20'5 6.1
2017-Jan-24 15:33N 54°32' E 011°14'4 4.4
2017-Jan-24 14:33N 54°33' E 011°07'1 0.1
2017-Jan-24 10:10N 54°34' E 011°07'4 7.2
2017-Jan-24 09:34N 54°34' E 011°15'  
2017-Jan-21 11:08N 54°27' E 010°24'  
2017-Jan-18 17:19N 54°28' E 011°19'4 5.6
2017-Jan-18 16:33N 54°32' E 011°15'6 5.6
2017-Jan-18 15:33N 54°33' E 011°06'6 6.0
2017-Jan-18 14:34N 54°34' E 010°55'7 6.7
2017-Jan-18 13:33N 54°35' E 010°44'  
2017-Jan-15 16:33N 54°32' E 011°15'6 5.7
2017-Jan-15 15:33N 54°33' E 011°05'5 5.3
2017-Jan-15 14:34N 54°32' E 010°57'6 5.6
2017-Jan-15 13:33N 54°29' E 010°48'7 5.1
2017-Jan-15 12:12N 54°32' E 010°59'4 6.4
2017-Jan-15 11:34N 54°34' E 011°05'6 6.2
2017-Jan-15 10:33N 54°31' E 011°15'  

Dump ship's entire track history